Time;durP1;ratioP1;P1;durP2;ratioP2;P2;SDS_P1;SDS_P2;PMS_P1;PMS_P2;Temp;Humidity;BMP_temperature;BMP_pressure;BME280_temperature;BME280_humidity;BME280_pressure;Samples;Min_cycle;Max_cycle;Signal;HPM_P1;HPM_P2
2023/07/21 00:00:29;;;;;;;0.13;0.13;;;14.70;99.90;;;;;;5070077;28;20076;-82
2023/07/21 00:02:55;;;;;;;0.17;0.17;;;14.70;99.90;;;;;;5070001;28;20135;-83
2023/07/21 00:05:24;;;;;;;0.10;0.10;;;14.70;99.90;;;;;;5114123;27;20777;-83
2023/07/21 00:07:50;;;;;;;0.10;0.10;;;14.60;99.90;;;;;;5085446;28;20056;-82
2023/07/21 00:10:16;;;;;;;0.10;0.10;;;14.60;99.90;;;;;;5078679;28;20058;-83
2023/07/21 00:12:47;;;;;;;0.20;0.20;;;14.60;99.90;;;;;;5085241;28;20126;-83
2023/07/21 00:15:17;;;;;;;0.20;0.20;;;14.50;99.90;;;;;;5114341;27;20515;-82
2023/07/21 00:17:46;;;;;;;0.20;0.20;;;14.50;99.90;;;;;;5077667;28;20079;-83
2023/07/21 00:20:15;;;;;;;0.10;0.10;;;14.50;99.90;;;;;;5070249;28;20048;-82
2023/07/21 00:22:41;;;;;;;0.10;0.10;;;14.40;99.90;;;;;;5086054;28;20040;-83
2023/07/21 00:25:10;;;;;;;0.13;0.13;;;14.40;99.90;;;;;;5084543;28;20040;-82
2023/07/21 00:27:43;;;;;;;0.10;0.10;;;14.30;99.90;;;;;;5082125;28;20127;-83
2023/07/21 00:30:09;;;;;;;0.10;0.10;;;14.40;99.90;;;;;;5078997;28;20047;-83
2023/07/21 00:32:40;;;;;;;0.20;0.20;;;14.30;99.90;;;;;;5080749;28;20040;-83
2023/07/21 00:35:10;;;;;;;0.20;0.20;;;14.30;99.90;;;;;;5069783;28;20029;-83
2023/07/21 00:37:36;;;;;;;0.20;0.20;;;14.20;99.90;;;;;;5111720;27;20044;-82
2023/07/21 00:40:04;;;;;;;0.20;0.20;;;14.20;99.90;;;;;;5069835;28;20582;-83
2023/07/21 00:42:30;;;;;;;0.15;0.15;;;14.10;99.90;;;;;;5080302;28;20051;-83
2023/07/21 00:44:59;;;;;;;0.20;0.20;;;14.20;99.90;;;;;;5085211;28;20107;-83
2023/07/21 00:47:25;;;;;;;0.10;0.10;;;14.10;99.90;;;;;;5082125;28;20041;-83
2023/07/21 00:49:52;;;;;;;0.15;0.15;;;14.10;99.90;;;;;;5080390;28;20111;-82
2023/07/21 00:52:18;;;;;;;0.17;0.17;;;14.10;99.90;;;;;;5077934;28;20108;-83
2023/07/21 00:54:47;;;;;;;0.20;0.20;;;14.10;99.90;;;;;;5079118;28;20040;-82
2023/07/21 00:57:16;;;;;;;0.10;0.10;;;14.00;99.90;;;;;;5078152;28;20043;-82
2023/07/21 00:59:42;;;;;;;0.20;0.20;;;14.00;99.90;;;;;;5080369;28;20547;-83
2023/07/21 01:02:08;;;;;;;0.10;0.10;;;14.00;99.90;;;;;;5085349;28;20096;-83
2023/07/21 01:04:34;;;;;;;0.20;0.20;;;13.90;99.90;;;;;;5117019;27;20056;-83
2023/07/21 01:07:03;;;;;;;0.20;0.20;;;13.90;99.90;;;;;;5087286;28;20405;-83
2023/07/21 01:09:30;;;;;;;0.10;0.10;;;13.90;99.90;;;;;;5085020;28;20117;-83
2023/07/21 01:11:56;;;;;;;0.15;0.15;;;13.90;99.90;;;;;;5115355;27;20054;-83
2023/07/21 01:14:22;;;;;;;0.10;0.10;;;13.90;99.90;;;;;;5075778;28;20056;-82
2023/07/21 01:16:50;;;;;;;0.10;0.10;;;13.90;99.90;;;;;;5075860;28;20522;-83
2023/07/21 01:19:15;;;;;;;0.10;0.10;;;13.90;99.90;;;;;;5072000;28;20056;-83
2023/07/21 01:22:17;;;;;;;0.10;0.10;;;13.90;99.90;;;;;;5075433;28;20036;-82
2023/07/21 01:25:07;;;;;;;0.20;0.20;;;13.80;99.90;;;;;;5037127;28;20744;-83
2023/07/21 01:27:36;;;;;;;0.17;0.17;;;13.80;99.90;;;;;;5077084;28;20051;-83
2023/07/21 01:30:02;;;;;;;0.15;0.15;;;13.80;99.90;;;;;;5082765;28;21645;-82
2023/07/21 01:32:29;;;;;;;0.10;0.10;;;13.80;99.90;;;;;;5086040;28;20044;-83
2023/07/21 01:34:56;;;;;;;0.17;0.17;;;13.80;99.90;;;;;;5084086;28;20051;-83
2023/07/21 01:37:23;;;;;;;0.10;0.10;;;13.80;99.90;;;;;;5087200;28;20060;-83
2023/07/21 01:39:51;;;;;;;0.20;0.20;;;13.70;99.90;;;;;;5077131;28;20123;-82
2023/07/21 01:42:19;;;;;;;0.10;0.10;;;13.60;99.90;;;;;;5077288;28;20036;-83
2023/07/21 01:44:44;;;;;;;0.10;0.10;;;13.60;99.90;;;;;;5071514;28;20048;-82
2023/07/21 01:47:10;;;;;;;0.10;0.10;;;13.60;99.90;;;;;;5076442;28;20039;-82
2023/07/21 01:49:36;;;;;;;0.20;0.20;;;13.60;99.90;;;;;;5077463;28;20052;-83
2023/07/21 01:52:02;;;;;;;0.10;0.10;;;13.50;99.90;;;;;;5086756;28;20492;-82
2023/07/21 01:54:45;;;;;;;0.10;0.10;;;13.50;99.90;;;;;;5081358;28;20036;-82
2023/07/21 01:57:17;;;;;;;0.10;0.10;;;13.50;99.90;;;;;;5075022;28;20162;-82
2023/07/21 01:59:46;;;;;;;0.17;0.17;;;13.50;99.90;;;;;;5080883;28;20108;-82
2023/07/21 02:02:13;;;;;;;0.20;0.20;;;13.50;99.90;;;;;;5112304;28;20448;-82
2023/07/21 02:04:39;;;;;;;0.10;0.10;;;13.40;99.90;;;;;;5113002;28;20506;-82
2023/07/21 02:07:05;;;;;;;0.10;0.10;;;13.60;99.90;;;;;;5075249;28;20055;-81
2023/07/21 02:09:31;;;;;;;0.10;0.10;;;13.40;99.90;;;;;;5072754;28;20048;-82
2023/07/21 02:11:58;;;;;;;0.20;0.20;;;13.40;99.90;;;;;;5083069;28;20032;-83
2023/07/21 02:14:24;;;;;;;0.10;0.10;;;13.40;99.90;;;;;;5070837;28;20403;-82
2023/07/21 02:16:49;;;;;;;0.20;0.20;;;13.40;99.90;;;;;;5078587;28;20040;-83
2023/07/21 02:19:15;;;;;;;0.10;0.10;;;13.40;99.90;;;;;;5114192;28;20047;-82
2023/07/21 02:21:41;;;;;;;0.10;0.10;;;13.30;99.90;;;;;;5084191;28;20062;-83
2023/07/21 02:24:07;;;;;;;0.10;0.10;;;13.30;99.90;;;;;;5073817;28;20033;-83
2023/07/21 02:26:32;;;;;;;0.13;0.13;;;13.30;99.90;;;;;;5082475;28;20039;-82
2023/07/21 02:28:59;;;;;;;0.10;0.10;;;13.30;99.90;;;;;;5074171;28;20319;-83
2023/07/21 02:31:25;;;;;;;0.20;0.20;;;13.30;99.90;;;;;;5104399;28;20037;-83
2023/07/21 02:33:51;;;;;;;0.20;0.20;;;13.20;99.90;;;;;;5118776;28;20185;-82
2023/07/21 02:36:16;;;;;;;0.20;0.20;;;13.20;99.90;;;;;;5087498;28;20498;-82
2023/07/21 02:38:42;;;;;;;0.20;0.20;;;13.30;99.90;;;;;;5078284;28;20560;-83
2023/07/21 02:41:09;;;;;;;0.20;0.20;;;13.30;99.90;;;;;;5083763;28;20036;-83
2023/07/21 02:43:35;;;;;;;0.17;0.17;;;13.30;99.90;;;;;;5080019;28;20040;-82
2023/07/21 02:46:01;;;;;;;0.20;0.20;;;13.20;99.90;;;;;;5079803;28;20444;-83
2023/07/21 02:48:29;;;;;;;0.10;0.10;;;13.20;99.90;;;;;;5078534;28;20115;-82
2023/07/21 02:50:58;;;;;;;0.15;0.15;;;13.20;99.90;;;;;;5117124;27;20174;-83
2023/07/21 02:53:24;;;;;;;0.10;0.10;;;13.20;99.90;;;;;;5111996;27;20455;-81
2023/07/21 02:55:50;;;;;;;0.20;0.20;;;13.20;99.90;;;;;;5085485;28;20089;-82
2023/07/21 02:58:17;;;;;;;0.20;0.20;;;13.20;99.90;;;;;;5087777;28;20442;-82
2023/07/21 03:00:43;;;;;;;0.20;0.20;;;13.20;99.90;;;;;;5080790;28;20055;-83
2023/07/21 03:03:16;;;;;;;0.20;0.20;;;13.20;99.90;;;;;;5087876;28;20104;-82
2023/07/21 03:05:42;;;;;;;0.20;0.20;;;13.00;99.90;;;;;;5087270;28;20051;-82
2023/07/21 03:08:09;;;;;;;0.17;0.17;;;13.20;99.90;;;;;;5079892;28;20043;-82
2023/07/21 03:10:34;;;;;;;0.20;0.20;;;13.20;99.90;;;;;;5074167;28;20040;-82
2023/07/21 03:13:00;;;;;;;0.10;0.10;;;13.20;99.90;;;;;;5073371;28;20055;-81
2023/07/21 03:15:26;;;;;;;0.20;0.20;;;13.20;99.90;;;;;;5084895;28;20059;-82
2023/07/21 03:17:52;;;;;;;0.20;0.20;;;13.10;99.90;;;;;;5078748;28;20045;-82
2023/07/21 03:20:18;;;;;;;0.10;0.10;;;13.10;99.90;;;;;;5108480;27;20044;-82
2023/07/21 03:22:47;;;;;;;0.20;0.20;;;13.10;99.90;;;;;;5086410;28;20437;-82
2023/07/21 03:25:13;;;;;;;0.17;0.17;;;13.10;99.90;;;;;;5083143;28;20084;-82
2023/07/21 03:27:44;;;;;;;0.20;0.20;;;13.10;99.90;;;;;;5088949;28;20576;-82
2023/07/21 03:30:10;;;;;;;0.13;0.13;;;13.10;99.90;;;;;;5084738;28;20088;-82
2023/07/21 03:32:37;;;;;;;0.20;0.20;;;13.10;99.90;;;;;;5077370;28;20078;-82
2023/07/21 03:35:04;;;;;;;0.20;0.20;;;13.10;99.90;;;;;;5082750;28;20131;-82
2023/07/21 03:37:31;;;;;;;0.10;0.10;;;13.10;99.90;;;;;;5081808;28;20044;-82
2023/07/21 03:39:57;;;;;;;0.20;0.20;;;13.10;99.90;;;;;;5086082;28;20032;-81
2023/07/21 03:42:23;;;;;;;0.10;0.10;;;13.10;99.90;;;;;;5086016;28;20051;-82
2023/07/21 03:44:52;;;;;;;0.20;0.20;;;13.10;99.90;;;;;;5076471;28;20427;-82
2023/07/21 03:47:19;;;;;;;0.20;0.20;;;13.10;99.90;;;;;;5074073;28;20470;-82
2023/07/21 03:49:46;;;;;;;0.20;0.20;;;13.10;99.90;;;;;;5078747;28;20105;-82
2023/07/21 03:52:12;;;;;;;0.10;0.10;;;13.10;99.90;;;;;;5084167;28;20066;-82
2023/07/21 03:54:38;;;;;;;0.10;0.10;;;13.10;99.90;;;;;;5086099;28;20044;-82
2023/07/21 03:57:04;;;;;;;0.20;0.20;;;13.10;99.90;;;;;;5079254;28;20029;-81
2023/07/21 03:59:30;;;;;;;0.10;0.10;;;13.10;99.90;;;;;;5103889;27;20086;-82
2023/07/21 04:01:56;;;;;;;0.20;0.20;;;13.10;99.90;;;;;;5082248;28;20479;-81
2023/07/21 04:04:22;;;;;;;0.10;0.10;;;13.10;99.90;;;;;;5078712;28;20036;-81
2023/07/21 04:06:48;;;;;;;0.20;0.20;;;13.10;99.90;;;;;;5083150;28;20048;-81
2023/07/21 04:09:13;;;;;;;0.10;0.10;;;13.10;99.90;;;;;;5088736;28;20051;-81
2023/07/21 04:11:42;;;;;;;0.10;0.10;;;12.80;99.90;;;;;;5080835;28;20060;-82
2023/07/21 04:14:08;;;;;;;0.10;0.10;;;13.10;99.90;;;;;;5078707;28;20452;-81
2023/07/21 04:16:34;;;;;;;0.10;0.10;;;13.10;99.90;;;;;;5113938;27;20135;-81
2023/07/21 04:19:00;;;;;;;0.20;0.20;;;13.10;99.90;;;;;;5071987;28;20449;-82
2023/07/21 04:21:25;;;;;;;0.20;0.20;;;13.10;99.90;;;;;;5112111;27;20429;-81
2023/07/21 04:23:52;;;;;;;0.13;0.13;;;13.10;99.90;;;;;;5085913;28;20066;-81
2023/07/21 04:26:18;;;;;;;0.10;0.10;;;13.10;99.90;;;;;;5070121;28;20048;-81
2023/07/21 04:28:44;;;;;;;0.10;0.10;;;13.10;99.90;;;;;;5082822;28;20032;-82
2023/07/21 04:31:10;;;;;;;0.10;0.10;;;13.10;99.90;;;;;;5070895;28;20052;-82
2023/07/21 04:33:37;;;;;;;0.20;0.20;;;13.10;99.90;;;;;;5075583;28;20039;-83
2023/07/21 04:36:04;;;;;;;0.20;0.20;;;13.20;99.90;;;;;;5073761;28;20052;-82
2023/07/21 04:38:30;;;;;;;0.20;0.20;;;13.10;99.90;;;;;;5072476;28;20044;-83
2023/07/21 04:40:56;;;;;;;0.20;0.20;;;13.20;99.90;;;;;;5081137;28;20055;-82
2023/07/21 04:43:22;;;;;;;0.20;0.20;;;13.20;99.90;;;;;;5076262;28;20483;-82
2023/07/21 04:45:48;;;;;;;0.10;0.10;;;13.20;99.90;;;;;;5072577;28;20037;-81
2023/07/21 04:48:14;;;;;;;0.20;0.20;;;13.20;99.90;;;;;;5085005;28;20059;-82
2023/07/21 04:50:42;;;;;;;0.20;0.20;;;13.30;99.90;;;;;;5080880;28;20044;-81
2023/07/21 04:53:11;;;;;;;0.20;0.20;;;13.30;99.90;;;;;;5119074;27;20093;-82
2023/07/21 04:55:38;;;;;;;0.20;0.20;;;13.40;99.90;;;;;;5083560;28;20089;-81
2023/07/21 04:58:08;;;;;;;0.20;0.20;;;13.40;99.90;;;;;;5077752;28;20044;-82
2023/07/21 05:00:34;;;;;;;0.20;0.20;;;13.40;99.90;;;;;;5080695;28;20066;-82
2023/07/21 05:03:00;;;;;;;0.20;0.20;;;13.50;99.90;;;;;;5079883;28;20047;-82
2023/07/21 05:05:27;;;;;;;0.20;0.20;;;13.60;99.90;;;;;;5119201;27;20040;-81
2023/07/21 05:07:53;;;;;;;0.20;0.20;;;13.60;99.90;;;;;;5072993;28;20032;-81
2023/07/21 05:10:19;;;;;;;0.20;0.20;;;13.70;99.90;;;;;;5119499;27;20062;-82
2023/07/21 05:12:44;;;;;;;0.15;0.15;;;13.70;99.90;;;;;;5087338;28;20399;-81
2023/07/21 05:15:13;;;;;;;0.20;0.20;;;13.80;99.90;;;;;;5083964;28;20161;-82
2023/07/21 05:17:40;;;;;;;0.20;0.20;;;13.90;99.90;;;;;;5072706;28;20971;-81
2023/07/21 05:20:07;;;;;;;0.20;0.20;;;14.00;99.90;;;;;;5108289;27;20033;-81
2023/07/21 05:22:33;;;;;;;0.20;0.20;;;14.00;99.90;;;;;;5079062;28;20047;-82
2023/07/21 05:24:59;;;;;;;0.20;0.20;;;14.10;99.90;;;;;;5084683;28;20047;-81
2023/07/21 05:27:25;;;;;;;0.20;0.20;;;14.10;99.90;;;;;;5080855;28;20074;-82
2023/07/21 05:29:51;;;;;;;0.20;0.20;;;14.20;99.90;;;;;;5077803;28;20040;-82
2023/07/21 05:32:16;;;;;;;0.17;0.17;;;14.30;99.90;;;;;;5079125;28;20044;-82
2023/07/21 05:34:42;;;;;;;0.15;0.15;;;14.30;99.90;;;;;;5084328;28;20463;-82
2023/07/21 05:37:11;;;;;;;0.10;0.10;;;14.30;99.90;;;;;;5076965;28;20048;-82
2023/07/21 05:39:37;;;;;;;0.20;0.20;;;14.40;99.90;;;;;;5080101;28;20059;-81
2023/07/21 05:42:03;;;;;;;0.10;0.10;;;14.40;99.90;;;;;;5077745;28;20032;-81
2023/07/21 05:44:30;;;;;;;0.20;0.20;;;14.40;99.90;;;;;;5072631;28;20052;-82
2023/07/21 05:46:56;;;;;;;0.20;0.20;;;14.50;99.90;;;;;;5085267;28;20080;-82
2023/07/21 05:49:22;;;;;;;0.20;0.20;;;14.50;99.90;;;;;;5078881;28;20064;-82
2023/07/21 05:51:48;;;;;;;0.10;0.10;;;14.60;99.90;;;;;;5082887;28;20044;-82
2023/07/21 05:54:14;;;;;;;0.10;0.10;;;14.70;99.90;;;;;;5072550;28;20047;-82
2023/07/21 05:56:40;;;;;;;0.20;0.20;;;14.70;99.90;;;;;;5112787;28;20047;-83
2023/07/21 05:59:06;;;;;;;0.13;0.13;;;14.70;99.90;;;;;;5082545;28;20040;-82
2023/07/21 06:01:34;;;;;;;0.20;0.20;;;14.80;99.90;;;;;;5068847;28;20430;-81
2023/07/21 06:04:00;;;;;;;0.10;0.10;;;14.80;99.90;;;;;;5080111;28;20040;-82
2023/07/21 06:06:25;;;;;;;0.20;0.20;;;14.90;99.90;;;;;;5073721;28;20101;-82
2023/07/21 06:08:51;;;;;;;0.20;0.20;;;15.00;99.90;;;;;;5076911;28;20510;-81
2023/07/21 06:11:17;;;;;;;0.20;0.20;;;15.00;99.90;;;;;;5081789;28;20555;-82
2023/07/21 06:13:43;;;;;;;0.20;0.20;;;15.10;99.90;;;;;;5075589;28;20040;-83
2023/07/21 06:16:09;;;;;;;0.20;0.20;;;15.20;99.90;;;;;;5106421;28;20709;-82
2023/07/21 06:18:35;;;;;;;0.20;0.20;;;15.30;99.90;;;;;;5077473;28;20045;-83
2023/07/21 06:21:03;;;;;;;0.20;0.20;;;15.40;99.90;;;;;;5083770;28;20051;-83
2023/07/21 06:23:29;;;;;;;0.10;0.10;;;15.40;99.90;;;;;;5077868;28;20044;-82
2023/07/21 06:25:55;;;;;;;0.10;0.10;;;15.50;99.90;;;;;;5084439;28;20040;-82
2023/07/21 06:28:20;;;;;;;0.20;0.20;;;15.60;99.90;;;;;;5075250;28;20039;-83
2023/07/21 06:30:46;;;;;;;0.20;0.20;;;15.60;99.90;;;;;;5100014;27;20632;-82
2023/07/21 06:33:12;;;;;;;0.20;0.20;;;15.70;99.90;;;;;;5078096;28;20044;-82
2023/07/21 06:35:37;;;;;;;0.20;0.20;;;15.70;99.90;;;;;;5119144;27;20394;-83
2023/07/21 06:38:03;;;;;;;0.20;0.20;;;15.80;99.90;;;;;;5111948;27;20040;-83
2023/07/21 06:40:30;;;;;;;0.10;0.10;;;15.90;99.90;;;;;;5082566;28;20052;-84
2023/07/21 06:42:56;;;;;;;0.10;0.10;;;15.90;99.90;;;;;;5085570;28;20032;-83
2023/07/21 06:45:23;;;;;;;0.10;0.10;;;16.00;99.90;;;;;;5089553;28;20093;-83
2023/07/21 06:47:48;;;;;;;0.20;0.20;;;16.10;99.90;;;;;;5073990;28;20131;-82
2023/07/21 06:50:14;;;;;;;0.10;0.10;;;16.20;99.90;;;;;;5089892;28;20127;-83
2023/07/21 06:52:40;;;;;;;0.20;0.20;;;16.30;99.90;;;;;;5079601;28;20072;-83
2023/07/21 06:55:06;;;;;;;0.20;0.20;;;16.30;99.90;;;;;;5088285;28;20040;-83
2023/07/21 06:57:31;;;;;;;0.20;0.20;;;16.40;99.90;;;;;;5090140;28;20052;-83
2023/07/21 06:59:57;;;;;;;0.13;0.13;;;16.50;99.90;;;;;;5092326;28;20169;-83
2023/07/21 07:02:23;;;;;;;0.20;0.20;;;16.60;99.90;;;;;;5083449;28;20068;-82
2023/07/21 07:04:51;;;;;;;0.20;0.20;;;16.70;99.90;;;;;;5072495;28;20473;-83
2023/07/21 07:07:17;;;;;;;0.20;0.20;;;16.80;99.90;;;;;;5092021;28;20063;-82
2023/07/21 07:09:43;;;;;;;0.20;0.20;;;16.90;99.90;;;;;;5092429;28;20135;-82
2023/07/21 07:12:09;;;;;;;0.20;0.20;;;17.00;99.90;;;;;;5085703;28;20587;-81
2023/07/21 07:14:34;;;;;;;0.10;0.10;;;17.10;99.90;;;;;;5069406;28;20080;-82
2023/07/21 07:17:00;;;;;;;0.10;0.10;;;17.20;99.90;;;;;;5087504;28;20380;-82
2023/07/21 07:19:26;;;;;;;0.20;0.20;;;17.20;99.90;;;;;;5072744;28;20686;-82
2023/07/21 07:21:52;;;;;;;0.20;0.20;;;17.30;99.90;;;;;;5073649;28;20086;-83
2023/07/21 07:24:19;;;;;;;0.20;0.20;;;17.40;99.90;;;;;;5075471;28;20433;-82
2023/07/21 07:26:45;;;;;;;0.20;0.20;;;17.50;99.90;;;;;;5087271;28;20115;-83
2023/07/21 07:29:10;;;;;;;0.20;0.20;;;17.60;99.90;;;;;;5090991;28;20138;-82
2023/07/21 07:31:37;;;;;;;0.20;0.20;;;17.60;99.90;;;;;;5087768;28;20032;-83
2023/07/21 07:34:04;;;;;;;0.20;0.20;;;17.70;99.90;;;;;;5123999;27;20126;-82
2023/07/21 07:36:30;;;;;;;0.30;0.30;;;17.80;99.90;;;;;;5104647;27;20454;-81
2023/07/21 07:38:55;;;;;;;0.10;0.10;;;17.80;99.90;;;;;;5090538;28;20131;-82
2023/07/21 07:41:21;;;;;;;0.10;0.10;;;17.80;99.90;;;;;;5087204;28;20584;-82
2023/07/21 07:43:47;;;;;;;0.20;0.20;;;17.80;99.90;;;;;;5087733;28;20040;-83
2023/07/21 07:46:14;;;;;;;0.15;0.15;;;17.90;99.90;;;;;;5090911;28;20055;-83
2023/07/21 07:48:40;;;;;;;0.20;0.20;;;17.90;99.90;;;;;;5087489;28;20052;-82
2023/07/21 07:51:07;;;;;;;0.20;0.20;;;18.00;99.90;;;;;;5094823;28;20424;-82
2023/07/21 07:53:36;;;;;;;0.20;0.20;;;18.00;99.90;;;;;;5091436;28;20126;-82
2023/07/21 07:56:03;;;;;;;0.10;0.10;;;18.00;99.90;;;;;;5092451;28;20032;-83
2023/07/21 07:58:29;;;;;;;0.20;0.20;;;18.10;99.90;;;;;;5089407;28;20543;-82
2023/07/21 08:00:57;;;;;;;0.15;0.15;;;18.10;99.90;;;;;;5085812;28;20040;-82
2023/07/21 08:03:23;;;;;;;0.20;0.20;;;18.20;99.90;;;;;;5080676;28;20444;-80
2023/07/21 08:05:50;;;;;;;0.20;0.20;;;18.20;99.90;;;;;;5089998;28;20096;-80
2023/07/21 08:08:21;;;;;;;0.13;0.13;;;18.30;99.90;;;;;;5089773;28;20051;-80
2023/07/21 08:10:47;;;;;;;0.20;0.20;;;18.30;99.90;;;;;;5094931;28;20038;-81
2023/07/21 08:13:13;;;;;;;0.20;0.20;;;18.40;99.90;;;;;;5099974;28;20174;-81
2023/07/21 08:15:43;;;;;;;0.13;0.13;;;18.40;99.90;;;;;;5120880;27;20139;-80
2023/07/21 08:18:11;;;;;;;0.20;0.20;;;18.40;99.90;;;;;;5091533;28;20075;-81
2023/07/21 08:20:40;;;;;;;0.20;0.20;;;18.50;99.90;;;;;;5103723;28;20122;-80
2023/07/21 08:23:07;;;;;;;0.10;0.10;;;18.50;99.90;;;;;;5110618;27;20480;-81
2023/07/21 08:25:33;;;;;;;0.10;0.10;;;18.60;99.90;;;;;;5094991;28;20051;-81
2023/07/21 08:28:03;;;;;;;0.20;0.20;;;18.60;99.90;;;;;;5093349;28;20570;-81
2023/07/21 08:30:30;;;;;;;0.20;0.20;;;18.70;99.90;;;;;;5105151;27;20068;-81
2023/07/21 08:32:58;;;;;;;0.20;0.20;;;18.70;99.90;;;;;;5079562;28;20058;-81
2023/07/21 08:35:24;;;;;;;0.20;0.20;;;18.80;99.90;;;;;;5080109;28;20043;-80
2023/07/21 08:37:50;;;;;;;0.20;0.20;;;18.90;99.90;;;;;;5070707;28;20553;-81
2023/07/21 08:40:16;;;;;;;0.10;0.10;;;18.90;99.90;;;;;;5070581;28;20040;-81
2023/07/21 08:42:42;;;;;;;0.20;0.20;;;19.00;99.90;;;;;;5085971;28;20143;-82
2023/07/21 08:45:08;;;;;;;0.20;0.20;;;19.10;99.90;;;;;;5106734;27;20040;-80
2023/07/21 08:47:35;;;;;;;0.10;0.10;;;19.20;99.90;;;;;;5085533;28;20032;-81
2023/07/21 08:50:04;;;;;;;0.20;0.20;;;19.30;99.90;;;;;;5091291;28;20040;-80
2023/07/21 08:52:31;;;;;;;0.10;0.10;;;19.30;99.90;;;;;;5088634;28;20131;-81
2023/07/21 08:54:57;;;;;;;0.13;0.13;;;19.40;99.90;;;;;;5083968;28;20040;-80
2023/07/21 08:57:22;;;;;;;0.13;0.13;;;19.40;99.90;;;;;;5090153;28;20036;-80
2023/07/21 08:59:49;;;;;;;0.20;0.20;;;19.50;99.90;;;;;;5120911;27;20382;-81
2023/07/21 09:02:15;;;;;;;0.17;0.17;;;19.50;99.90;;;;;;5075873;28;20040;-81
2023/07/21 09:04:46;;;;;;;0.20;0.20;;;19.50;99.90;;;;;;5110361;27;20123;-81
2023/07/21 09:07:12;;;;;;;0.15;0.15;;;19.50;99.90;;;;;;5089927;28;20126;-81
2023/07/21 09:09:38;;;;;;;0.10;0.10;;;19.50;99.90;;;;;;5087643;28;20048;-81
2023/07/21 09:12:07;;;;;;;0.20;0.20;;;19.50;99.90;;;;;;5086683;28;20050;-81
2023/07/21 09:14:40;;;;;;;0.20;0.20;;;19.50;99.90;;;;;;5087618;28;20056;-82
2023/07/21 09:17:09;;;;;;;0.20;0.20;;;19.50;99.90;;;;;;5088901;28;20040;-81
2023/07/21 09:19:38;;;;;;;0.28;0.28;;;19.60;99.90;;;;;;5084614;28;20041;-81
2023/07/21 09:22:04;;;;;;;0.20;0.20;;;19.60;99.90;;;;;;5069175;28;20105;-81
2023/07/21 09:24:30;;;;;;;0.20;0.20;;;19.60;99.90;;;;;;5105426;28;20040;-80
2023/07/21 09:27:16;;;;;;;0.20;0.20;;;19.70;99.90;;;;;;5075683;28;20071;-80
2023/07/21 09:29:42;;;;;;;0.20;0.20;;;19.70;99.90;;;;;;5068491;28;20102;-81
2023/07/21 09:32:17;;;;;;;0.10;0.10;;;19.70;99.90;;;;;;5083537;28;20048;-81
2023/07/21 09:34:55;;;;;;;0.10;0.10;;;19.80;99.90;;;;;;5090505;28;20055;-81
2023/07/21 09:37:23;;;;;;;0.10;0.10;;;19.80;99.90;;;;;;5078883;28;20044;-81
2023/07/21 09:39:57;;;;;;;0.20;0.20;;;19.80;99.90;;;;;;5068586;28;20086;-81
2023/07/21 09:42:23;;;;;;;0.20;0.20;;;19.90;99.90;;;;;;5080614;28;20048;-81
2023/07/21 09:44:51;;;;;;;0.20;0.20;;;19.90;99.90;;;;;;5080711;28;20041;-80
2023/07/21 09:47:17;;;;;;;0.20;0.20;;;19.90;99.90;;;;;;5083387;28;20047;-81
2023/07/21 09:49:44;;;;;;;0.20;0.20;;;19.90;99.90;;;;;;5082025;28;20070;-81
2023/07/21 09:52:15;;;;;;;0.20;0.20;;;19.90;99.80;;;;;;5075733;28;20060;-81
2023/07/21 09:54:44;;;;;;;0.28;0.28;;;19.90;99.60;;;;;;5077505;28;20043;-81
2023/07/21 09:57:13;;;;;;;0.20;0.20;;;19.90;99.50;;;;;;5091815;28;20044;-80
2023/07/21 09:59:43;;;;;;;0.20;0.20;;;19.90;99.30;;;;;;5087186;28;20070;-80
2023/07/21 10:02:10;;;;;;;0.20;0.20;;;20.00;99.00;;;;;;5082065;28;20052;-79
2023/07/21 10:04:35;;;;;;;0.20;0.20;;;20.00;98.90;;;;;;5085385;28;20040;-80
2023/07/21 10:07:06;;;;;;;0.13;0.13;;;20.00;98.90;;;;;;5088972;28;20051;-81
2023/07/21 10:09:32;;;;;;;0.20;0.20;;;20.00;98.80;;;;;;5087269;28;20046;-81
2023/07/21 10:12:16;;;;;;;0.10;0.10;;;19.90;98.80;;;;;;5088901;28;20157;-80
2023/07/21 10:14:44;;;;;;;0.20;0.20;;;19.90;98.70;;;;;;5112189;27;20056;-80
2023/07/21 10:17:10;;;;;;;0.20;0.20;;;20.00;99.00;;;;;;5082130;28;20085;-80
2023/07/21 10:19:44;;;;;;;0.20;0.20;;;20.00;99.00;;;;;;5080990;28;20163;-80
2023/07/21 10:22:23;;;;;;;0.10;0.10;;;20.00;99.10;;;;;;5074584;28;20076;-79
2023/07/21 10:24:51;;;;;;;0.20;0.20;;;20.10;99.30;;;;;;5072332;28;20052;-82
2023/07/21 10:27:24;;;;;;;0.10;0.10;;;20.20;99.40;;;;;;5079376;28;20044;-81
2023/07/21 10:29:56;;;;;;;0.20;0.20;;;20.20;99.40;;;;;;5078368;28;20399;-81
2023/07/21 10:32:24;;;;;;;0.20;0.20;;;20.30;99.60;;;;;;5071389;28;20075;-81
2023/07/21 10:34:51;;;;;;;0.10;0.10;;;20.30;99.00;;;;;;5076109;28;20043;-80
2023/07/21 10:37:17;;;;;;;0.10;0.10;;;20.30;98.70;;;;;;5083280;28;20032;-81
2023/07/21 10:39:53;;;;;;;0.20;0.20;;;20.40;98.80;;;;;;5082870;28;20034;-81
2023/07/21 10:42:19;;;;;;;0.20;0.20;;;20.40;98.80;;;;;;5097899;28;20056;-81
2023/07/21 10:44:47;;;;;;;0.20;0.20;;;20.40;98.80;;;;;;5080356;28;20079;-80
2023/07/21 10:47:20;;;;;;;0.20;0.20;;;20.40;98.70;;;;;;5107554;28;20055;-80
2023/07/21 10:49:48;;;;;;;0.20;0.20;;;20.40;98.20;;;;;;5124457;27;20040;-80
2023/07/21 10:52:14;;;;;;;0.20;0.20;;;20.40;97.60;;;;;;5087682;28;20540;-82
2023/07/21 10:54:40;;;;;;;0.20;0.20;;;20.40;97.30;;;;;;5093326;28;20059;-81
2023/07/21 10:57:08;;;;;;;0.20;0.20;;;20.50;97.50;;;;;;5120970;27;20399;-81
2023/07/21 10:59:35;;;;;;;0.10;0.10;;;20.50;97.60;;;;;;5093932;28;20048;-80
2023/07/21 11:02:03;;;;;;;0.20;0.20;;;20.60;97.50;;;;;;5092064;28;20087;-82
2023/07/21 11:04:30;;;;;;;0.20;0.20;;;20.60;97.10;;;;;;5088964;28;20052;-81
2023/07/21 11:06:57;;;;;;;0.20;0.20;;;20.70;96.60;;;;;;5091502;28;20387;-82
2023/07/21 11:09:25;;;;;;;0.20;0.20;;;20.70;96.50;;;;;;5089559;28;20411;-81
2023/07/21 11:11:53;;;;;;;0.10;0.10;;;20.90;96.50;;;;;;5090423;28;20571;-82
2023/07/21 11:14:20;;;;;;;0.20;0.20;;;20.90;96.40;;;;;;5086614;28;20060;-79
2023/07/21 11:16:56;;;;;;;0.20;0.20;;;20.90;96.60;;;;;;5114193;27;20131;-81
2023/07/21 11:19:30;;;;;;;0.20;0.20;;;21.00;96.10;;;;;;5092175;28;20065;-81
2023/07/21 11:21:56;;;;;;;0.20;0.20;;;21.20;95.80;;;;;;5088767;28;20098;-82
2023/07/21 11:24:25;;;;;;;0.20;0.20;;;21.30;95.80;;;;;;5074061;28;20049;-82
2023/07/21 11:26:53;;;;;;;0.20;0.20;;;21.30;95.20;;;;;;5079199;28;20047;-82
2023/07/21 11:29:19;;;;;;;0.20;0.20;;;21.40;95.30;;;;;;5111197;28;20039;-81
2023/07/21 11:31:46;;;;;;;0.10;0.10;;;21.50;95.40;;;;;;5093841;28;20134;-82
2023/07/21 11:34:31;;;;;;;0.20;0.20;;;21.60;95.30;;;;;;5092056;28;20148;-82
2023/07/21 11:36:59;;;;;;;0.20;0.20;;;21.80;94.70;;;;;;5074027;28;20039;-80
2023/07/21 11:39:29;;;;;;;0.20;0.20;;;22.00;94.80;;;;;;5074548;28;20040;-81
2023/07/21 11:41:56;;;;;;;0.20;0.20;;;22.20;94.60;;;;;;5094370;27;20060;-80
2023/07/21 11:44:27;;;;;;;0.20;0.20;;;22.20;94.10;;;;;;5070788;28;20719;-80
2023/07/21 11:47:05;;;;;;;0.30;0.30;;;22.30;93.80;;;;;;5081760;28;20067;-81
2023/07/21 11:49:36;;;;;;;0.20;0.20;;;22.20;93.70;;;;;;5081997;28;20372;-81
2023/07/21 11:52:03;;;;;;;;;;;22.20;93.60;;;;;;5077099;28;20044;-81
2023/07/21 11:54:35;;;;;;;0.20;0.20;;;22.10;93.90;;;;;;5091073;28;19931;-82
2023/07/21 11:57:01;;;;;;;0.20;0.20;;;22.20;94.20;;;;;;5090123;28;20082;-81
2023/07/21 11:59:27;;;;;;;0.20;0.20;;;22.20;94.30;;;;;;5090578;28;20036;-82
2023/07/21 12:01:55;;;;;;;0.20;0.20;;;22.20;94.20;;;;;;5083156;28;20403;-82
2023/07/21 12:04:22;;;;;;;0.20;0.20;;;22.20;93.70;;;;;;5107992;27;20071;-81
2023/07/21 12:06:48;;;;;;;0.20;0.20;;;22.20;93.60;;;;;;5082989;28;20054;-81
2023/07/21 12:09:16;;;;;;;0.20;0.20;;;22.10;93.70;;;;;;5110420;27;20048;-82
2023/07/21 12:11:43;;;;;;;0.20;0.20;;;22.10;93.50;;;;;;5076327;28;20431;-80
2023/07/21 12:14:09;;;;;;;0.20;0.20;;;22.00;92.90;;;;;;5116478;27;20064;-80
2023/07/21 12:16:35;;;;;;;0.20;0.20;;;21.80;93.10;;;;;;5089133;28;20562;-80
2023/07/21 12:19:05;;;;;;;0.15;0.15;;;21.50;93.30;;;;;;5083122;28;20047;-81
2023/07/21 12:21:31;;;;;;;0.20;0.20;;;21.30;93.70;;;;;;5090441;28;20123;-80
2023/07/21 12:23:57;;;;;;;0.20;0.20;;;21.10;94.10;;;;;;5086200;28;20181;-80
2023/07/21 12:26:24;;;;;;;0.20;0.20;;;20.90;94.20;;;;;;5089474;28;20035;-80
2023/07/21 12:28:51;;;;;;;0.20;0.20;;;20.70;94.50;;;;;;5107999;27;20489;-81
2023/07/21 12:31:17;;;;;;;0.20;0.20;;;20.40;94.70;;;;;;5088801;28;20044;-80
2023/07/21 12:33:48;;;;;;;0.20;0.20;;;20.20;95.00;;;;;;5089093;28;20042;-83
2023/07/21 12:36:17;;;;;;;0.20;0.20;;;20.00;95.30;;;;;;5090026;28;20449;-82
2023/07/21 12:38:44;;;;;;;0.20;0.20;;;19.90;95.90;;;;;;5070863;28;20582;-81
2023/07/21 12:41:10;;;;;;;0.20;0.20;;;19.70;96.90;;;;;;5092488;28;20076;-81
2023/07/21 12:43:36;;;;;;;0.20;0.20;;;19.60;97.30;;;;;;5091612;28;20036;-81
2023/07/21 12:46:03;;;;;;;0.20;0.20;;;19.30;97.80;;;;;;5090410;28;20127;-81
2023/07/21 12:48:30;;;;;;;0.20;0.20;;;19.20;98.80;;;;;;5085565;28;20048;-81